Driftmaster — AEJH — position and weather

sailwx.info

Track history (hours):
 
Tides and Currents Weather Stations Pressure Air Temp Water Temp Dewpoint Dewpoint Depression Visibility Wind Speed Wind Dir Waves Ship Positions

Driftmaster

Last reported at 2018-Jul-18 19:10 UTC. Time now 2018-Jul-20 02:41 UTC.
Position N 40°41' W 074°04'.

Length 30 m; draft 3 m.

MMSI: 366999411.

Date/timePositionNaut miles runAvg speedWind from/ knotsBaromVisibWave heightAir tempDewpointWater temp
2018-Jul-18 19:10N 40°41' W 074°04'0 2.9
2018-Jul-18 19:00N 40°41' W 074°04'0 0.4
2018-Jul-18 18:30N 40°41' W 074°04'0 0.2
2018-Jul-18 18:00N 40°41' W 074°04'1 1.7
2018-Jul-18 17:30N 40°40' W 074°03'2 3.7
2018-Jul-18 17:00N 40°42' W 074°02'2 4.1
2018-Jul-18 16:30N 40°44' W 074°01'0 0.6
2018-Jul-18 15:58N 40°44' W 074°02'0 0.0
2018-Jul-18 15:29N 40°44' W 074°02'1 1.6
2018-Jul-18 15:00N 40°45' W 074°01'0 1.0
2018-Jul-18 14:30N 40°44' W 074°01'3 3.0
2018-Jul-18 13:30N 40°41' W 074°02'1 3.0
2018-Jul-18 13:00N 40°40' W 074°03'2 3.0
2018-Jul-18 12:30N 40°39' W 074°03'3 5.1
2018-Jul-18 12:00N 40°41' W 074°04'  
2018-Jul-15 19:19N 40°41' W 074°04'0 0.0
2018-Jul-15 19:00N 40°41' W 074°04'0 0.3
2018-Jul-15 18:30N 40°41' W 074°04'2 3.2
2018-Jul-15 18:00N 40°41' W 074°02'2 5.0
2018-Jul-15 17:30N 40°44' W 074°01'0 0.3
2018-Jul-15 15:55N 40°44' W 074°02'2 4.1
2018-Jul-15 15:30N 40°42' W 074°01'1 2.0
2018-Jul-15 14:59N 40°42' W 073°60'1 1.0
2018-Jul-15 14:02N 40°43' W 073°59'0 0.3
2018-Jul-15 13:56N 40°43' W 073°59'1 2.2
2018-Jul-15 13:24N 40°42' W 074°00'2 4.8
2018-Jul-15 13:00N 40°41' W 074°02'1 2.8
2018-Jul-15 12:30N 40°41' W 074°04'0 0.6
2018-Jul-15 12:00N 40°41' W 074°04'1 0.0
2018-Jul-14 19:19N 40°41' W 074°04'0 0.0
2018-Jul-14 19:00N 40°41' W 074°04'0 0.0
2018-Jul-14 18:30N 40°41' W 074°04'0 0.0
2018-Jul-14 18:00N 40°41' W 074°04'0 0.6
2018-Jul-14 17:30N 40°41' W 074°04'2 3.5
2018-Jul-14 17:00N 40°42' W 074°02'2 4.5
2018-Jul-14 16:30N 40°44' W 074°02'0 0.7
2018-Jul-14 16:00N 40°44' W 074°02'0 0.1
2018-Jul-14 15:30N 40°44' W 074°02'1 1.2
2018-Jul-14 15:00N 40°44' W 074°01'2 2.2
2018-Jul-14 14:00N 40°42' W 073°60'0 0.4
2018-Jul-14 13:30N 40°42' W 074°00'0 0.3
2018-Jul-14 13:00N 40°42' W 074°00'3 5.9
2018-Jul-14 12:30N 40°41' W 074°03'1 1.9
2018-Jul-14 12:00N 40°41' W 074°04'0 0.0
2018-Jul-13 19:20N 40°41' W 074°04'0 0.0
2018-Jul-13 19:00N 40°41' W 074°04'1 1.0
2018-Jul-13 18:30N 40°41' W 074°04'1 1.6
2018-Jul-13 18:00N 40°41' W 074°03'1 1.3
2018-Jul-13 17:30N 40°41' W 074°02'1 2.0
2018-Jul-13 17:00N 40°40' W 074°03'0 0.3
2018-Jul-13 16:30N 40°40' W 074°03'0 0.2
2018-Jul-13 16:00N 40°40' W 074°03'1 1.7
2018-Jul-13 15:30N 40°41' W 074°02'2 3.2
2018-Jul-13 15:00N 40°39' W 074°03'2 3.9
2018-Jul-13 14:30N 40°37' W 074°03'0 0.2
2018-Jul-13 13:30N 40°37' W 074°03'1 2.9
2018-Jul-13 13:00N 40°39' W 074°03'1 2.3
2018-Jul-13 12:30N 40°40' W 074°04'1 3.0
2018-Jul-13 12:00N 40°41' W 074°04'0 0.0
2018-Jul-12 19:00N 40°41' W 074°04'2 3.3
2018-Jul-12 18:30N 40°40' W 074°03'3 5.4
2018-Jul-12 18:00N 40°42' W 074°02'2 3.6
2018-Jul-12 17:30N 40°44' W 074°02'0 0.0
2018-Jul-12 17:00N 40°44' W 074°02'0 0.0
2018-Jul-12 16:30N 40°44' W 074°02'1 2.0
2018-Jul-12 16:00N 40°43' W 074°01'0 0.7
2018-Jul-12 15:30N 40°43' W 074°02'0 0.4
2018-Jul-12 15:00N 40°43' W 074°01'2 4.5
2018-Jul-12 14:30N 40°40' W 074°02'2 3.4
2018-Jul-12 14:00N 40°39' W 074°03'1 2.4
2018-Jul-12 13:30N 40°38' W 074°03'2 3.3
2018-Jul-12 13:00N 40°39' W 074°04'1 2.6
2018-Jul-12 12:30N 40°41' W 074°04'1 1.7
2018-Jul-12 12:00N 40°41' W 074°04'0 0.0
2018-Jul-11 19:21N 40°41' W 074°04'0 0.0
2018-Jul-11 19:00N 40°41' W 074°04'0 0.0
2018-Jul-11 18:30N 40°41' W 074°04'1 2.8
2018-Jul-11 18:00N 40°40' W 074°03'2 5.0
2018-Jul-11 17:30N 40°42' W 074°00'1 1.8
2018-Jul-11 17:00N 40°42' W 074°01'2 4.2
2018-Jul-11 16:27N 40°44' W 074°02'0 0.0
2018-Jul-11 15:57N 40°44' W 074°02'0 0.0
2018-Jul-11 15:24N 40°44' W 074°02'0 0.0
2018-Jul-11 14:58N 40°44' W 074°02'1 2.8
2018-Jul-11 14:30N 40°43' W 074°02'2 3.6
2018-Jul-11 14:00N 40°41' W 074°02'1 3.0
2018-Jul-11 13:30N 40°41' W 074°04'0 0.1
2018-Jul-11 13:00N 40°41' W 074°04'0 0.0
2018-Jul-11 12:30N 40°41' W 074°04'0 0.0
2018-Jul-11 12:00N 40°41' W 074°04'0 0.0
2018-Jul-10 19:09N 40°41' W 074°04'0 0.9
2018-Jul-10 19:00N 40°41' W 074°04'0 0.9
2018-Jul-10 18:30N 40°41' W 074°04'1 1.1
2018-Jul-10 18:00N 40°41' W 074°03'2 4.0
2018-Jul-10 17:30N 40°43' W 074°02'1 2.1
2018-Jul-10 17:00N 40°43' W 074°01'2 3.6
2018-Jul-10 16:30N 40°45' W 074°01'0 0.0
2018-Jul-10 16:00N 40°45' W 074°01'0 0.0
2018-Jul-10 15:30N 40°45' W 074°01'0 0.0
2018-Jul-10 15:00N 40°45' W 074°01'0 0.8
2018-Jul-10 14:30N 40°45' W 074°01'2 3.5
2018-Jul-10 14:00N 40°43' W 074°02'2 4.0
2018-Jul-10 13:30N 40°41' W 074°03'1 2.8
2018-Jul-10 13:00N 40°41' W 074°04'0 0.0
2018-Jul-10 12:30N 40°41' W 074°04'0 0.0
2018-Jul-10 12:00N 40°41' W 074°04'0 0.0
2018-Jul-10 11:30N 40°41' W 074°04'0 0.0
2018-Jul-09 19:16N 40°41' W 074°04'1 2.7
2018-Jul-09 19:00N 40°41' W 074°04'0 0.5
2018-Jul-09 18:30N 40°41' W 074°04'0 0.0
2018-Jul-09 18:00N 40°41' W 074°04'2 4.4
2018-Jul-09 17:30N 40°42' W 074°01'2 3.9
2018-Jul-09 17:00N 40°40' W 074°01'1 1.6
2018-Jul-09 16:30N 40°40' W 074°00'0 0.0
2018-Jul-09 16:00N 40°40' W 074°00'0 0.0
2018-Jul-09 15:30N 40°40' W 074°00'1 2.3
2018-Jul-09 15:00N 40°40' W 074°02'1 2.7
2018-Jul-09 14:30N 40°39' W 074°02'2 3.5
2018-Jul-09 14:00N 40°37' W 074°03'2 3.0
2018-Jul-09 13:30N 40°36' W 074°03'0 0.7
2018-Jul-09 13:00N 40°36' W 074°03'3 6.0
2018-Jul-09 12:30N 40°39' W 074°03'2 4.5
2018-Jul-09 12:00N 40°41' W 074°04'  
Track history (hours):
 
Tides and Currents Weather Stations Pressure Air Temp Water Temp Dewpoint Dewpoint Depression Visibility Wind Speed Wind Dir Waves Ship Positions

Driftmaster

Last reported at 2018-Jul-18 19:10 UTC. Time now 2018-Jul-20 02:41 UTC.
Position N 40°41' W 074°04'.

Length 30 m; draft 3 m.

MMSI: 366999411.

Date/timePositionNaut miles runAvg speedWind from/ knotsBaromVisibWave heightAir tempDewpointWater temp
2018-Jul-18 19:10N 40°41' W 074°04'0 2.9
2018-Jul-18 19:00N 40°41' W 074°04'0 0.4
2018-Jul-18 18:30N 40°41' W 074°04'0 0.2
2018-Jul-18 18:00N 40°41' W 074°04'1 1.7
2018-Jul-18 17:30N 40°40' W 074°03'2 3.7
2018-Jul-18 17:00N 40°42' W 074°02'2 4.1
2018-Jul-18 16:30N 40°44' W 074°01'0 0.6
2018-Jul-18 15:58N 40°44' W 074°02'0 0.0
2018-Jul-18 15:29N 40°44' W 074°02'1 1.6
2018-Jul-18 15:00N 40°45' W 074°01'0 1.0
2018-Jul-18 14:30N 40°44' W 074°01'3 3.0
2018-Jul-18 13:30N 40°41' W 074°02'1 3.0
2018-Jul-18 13:00N 40°40' W 074°03'2 3.0
2018-Jul-18 12:30N 40°39' W 074°03'3 5.1
2018-Jul-18 12:00N 40°41' W 074°04'  
2018-Jul-15 19:19N 40°41' W 074°04'0 0.0
2018-Jul-15 19:00N 40°41' W 074°04'0 0.3
2018-Jul-15 18:30N 40°41' W 074°04'2 3.2
2018-Jul-15 18:00N 40°41' W 074°02'2 5.0
2018-Jul-15 17:30N 40°44' W 074°01'0 0.3
2018-Jul-15 15:55N 40°44' W 074°02'2 4.1
2018-Jul-15 15:30N 40°42' W 074°01'1 2.0
2018-Jul-15 14:59N 40°42' W 073°60'1 1.0
2018-Jul-15 14:02N 40°43' W 073°59'0 0.3
2018-Jul-15 13:56N 40°43' W 073°59'1 2.2
2018-Jul-15 13:24N 40°42' W 074°00'2 4.8
2018-Jul-15 13:00N 40°41' W 074°02'1 2.8
2018-Jul-15 12:30N 40°41' W 074°04'0 0.6
2018-Jul-15 12:00N 40°41' W 074°04'1 0.0
2018-Jul-14 19:19N 40°41' W 074°04'0 0.0
2018-Jul-14 19:00N 40°41' W 074°04'0 0.0
2018-Jul-14 18:30N 40°41' W 074°04'0 0.0
2018-Jul-14 18:00N 40°41' W 074°04'0 0.6
2018-Jul-14 17:30N 40°41' W 074°04'2 3.5
2018-Jul-14 17:00N 40°42' W 074°02'2 4.5
2018-Jul-14 16:30N 40°44' W 074°02'0 0.7
2018-Jul-14 16:00N 40°44' W 074°02'0 0.1
2018-Jul-14 15:30N 40°44' W 074°02'1 1.2
2018-Jul-14 15:00N 40°44' W 074°01'2 2.2
2018-Jul-14 14:00N 40°42' W 073°60'0 0.4
2018-Jul-14 13:30N 40°42' W 074°00'0 0.3
2018-Jul-14 13:00N 40°42' W 074°00'3 5.9
2018-Jul-14 12:30N 40°41' W 074°03'1 1.9
2018-Jul-14 12:00N 40°41' W 074°04'0 0.0
2018-Jul-13 19:20N 40°41' W 074°04'0 0.0
2018-Jul-13 19:00N 40°41' W 074°04'1 1.0
2018-Jul-13 18:30N 40°41' W 074°04'1 1.6
2018-Jul-13 18:00N 40°41' W 074°03'1 1.3
2018-Jul-13 17:30N 40°41' W 074°02'1 2.0
2018-Jul-13 17:00N 40°40' W 074°03'0 0.3
2018-Jul-13 16:30N 40°40' W 074°03'0 0.2
2018-Jul-13 16:00N 40°40' W 074°03'1 1.7
2018-Jul-13 15:30N 40°41' W 074°02'2 3.2
2018-Jul-13 15:00N 40°39' W 074°03'2 3.9
2018-Jul-13 14:30N 40°37' W 074°03'0 0.2
2018-Jul-13 13:30N 40°37' W 074°03'1 2.9
2018-Jul-13 13:00N 40°39' W 074°03'1 2.3
2018-Jul-13 12:30N 40°40' W 074°04'1 3.0
2018-Jul-13 12:00N 40°41' W 074°04'0 0.0
2018-Jul-12 19:00N 40°41' W 074°04'2 3.3
2018-Jul-12 18:30N 40°40' W 074°03'3 5.4
2018-Jul-12 18:00N 40°42' W 074°02'2 3.6
2018-Jul-12 17:30N 40°44' W 074°02'0 0.0
2018-Jul-12 17:00N 40°44' W 074°02'0 0.0
2018-Jul-12 16:30N 40°44' W 074°02'1 2.0
2018-Jul-12 16:00N 40°43' W 074°01'0 0.7
2018-Jul-12 15:30N 40°43' W 074°02'0 0.4
2018-Jul-12 15:00N 40°43' W 074°01'2 4.5
2018-Jul-12 14:30N 40°40' W 074°02'2 3.4
2018-Jul-12 14:00N 40°39' W 074°03'1 2.4
2018-Jul-12 13:30N 40°38' W 074°03'2 3.3
2018-Jul-12 13:00N 40°39' W 074°04'1 2.6
2018-Jul-12 12:30N 40°41' W 074°04'1 1.7
2018-Jul-12 12:00N 40°41' W 074°04'0 0.0
2018-Jul-11 19:21N 40°41' W 074°04'0 0.0
2018-Jul-11 19:00N 40°41' W 074°04'0 0.0
2018-Jul-11 18:30N 40°41' W 074°04'1 2.8
2018-Jul-11 18:00N 40°40' W 074°03'2 5.0
2018-Jul-11 17:30N 40°42' W 074°00'1 1.8
2018-Jul-11 17:00N 40°42' W 074°01'2 4.2
2018-Jul-11 16:27N 40°44' W 074°02'0 0.0
2018-Jul-11 15:57N 40°44' W 074°02'0 0.0
2018-Jul-11 15:24N 40°44' W 074°02'0 0.0
2018-Jul-11 14:58N 40°44' W 074°02'1 2.8
2018-Jul-11 14:30N 40°43' W 074°02'2 3.6
2018-Jul-11 14:00N 40°41' W 074°02'1 3.0
2018-Jul-11 13:30N 40°41' W 074°04'0 0.1
2018-Jul-11 13:00N 40°41' W 074°04'0 0.0
2018-Jul-11 12:30N 40°41' W 074°04'0 0.0
2018-Jul-11 12:00N 40°41' W 074°04'0 0.0
2018-Jul-10 19:09N 40°41' W 074°04'0 0.9
2018-Jul-10 19:00N 40°41' W 074°04'0 0.9
2018-Jul-10 18:30N 40°41' W 074°04'1 1.1
2018-Jul-10 18:00N 40°41' W 074°03'2 4.0
2018-Jul-10 17:30N 40°43' W 074°02'1 2.1
2018-Jul-10 17:00N 40°43' W 074°01'2 3.6
2018-Jul-10 16:30N 40°45' W 074°01'0 0.0
2018-Jul-10 16:00N 40°45' W 074°01'0 0.0
2018-Jul-10 15:30N 40°45' W 074°01'0 0.0
2018-Jul-10 15:00N 40°45' W 074°01'0 0.8
2018-Jul-10 14:30N 40°45' W 074°01'2 3.5
2018-Jul-10 14:00N 40°43' W 074°02'2 4.0
2018-Jul-10 13:30N 40°41' W 074°03'1 2.8
2018-Jul-10 13:00N 40°41' W 074°04'0 0.0
2018-Jul-10 12:30N 40°41' W 074°04'0 0.0
2018-Jul-10 12:00N 40°41' W 074°04'0 0.0
2018-Jul-10 11:30N 40°41' W 074°04'0 0.0
2018-Jul-09 19:16N 40°41' W 074°04'1 2.7
2018-Jul-09 19:00N 40°41' W 074°04'0 0.5
2018-Jul-09 18:30N 40°41' W 074°04'0 0.0
2018-Jul-09 18:00N 40°41' W 074°04'2 4.4
2018-Jul-09 17:30N 40°42' W 074°01'2 3.9
2018-Jul-09 17:00N 40°40' W 074°01'1 1.6
2018-Jul-09 16:30N 40°40' W 074°00'0 0.0
2018-Jul-09 16:00N 40°40' W 074°00'0 0.0
2018-Jul-09 15:30N 40°40' W 074°00'1 2.3
2018-Jul-09 15:00N 40°40' W 074°02'1 2.7
2018-Jul-09 14:30N 40°39' W 074°02'2 3.5
2018-Jul-09 14:00N 40°37' W 074°03'2 3.0
2018-Jul-09 13:30N 40°36' W 074°03'0 0.7
2018-Jul-09 13:00N 40°36' W 074°03'3 6.0
2018-Jul-09 12:30N 40°39' W 074°03'2 4.5
2018-Jul-09 12:00N 40°41' W 074°04'  

Dump ship's entire track history